sensor_id;sensor_type;location;lat;lon;timestamp;P1;durP1;ratioP1;P2;durP2;ratioP2
47523;SDS011;33253;42.144;25.884;2022-07-30T00:00:16;10.68;;;3.60;;
47523;SDS011;33253;42.144;25.884;2022-07-30T00:02:42;8.50;;;4.10;;
47523;SDS011;33253;42.144;25.884;2022-07-30T00:05:07;5.85;;;3.63;;
47523;SDS011;33253;42.144;25.884;2022-07-30T00:07:33;7.32;;;4.03;;
47523;SDS011;33253;42.144;25.884;2022-07-30T00:10:00;11.35;;;3.83;;
47523;SDS011;33253;42.144;25.884;2022-07-30T00:12:26;8.63;;;4.07;;
47523;SDS011;33253;42.144;25.884;2022-07-30T00:14:51;6.55;;;4.22;;
47523;SDS011;33253;42.144;25.884;2022-07-30T00:17:17;8.95;;;4.10;;
47523;SDS011;33253;42.144;25.884;2022-07-30T00:19:42;11.65;;;3.83;;
47523;SDS011;33253;42.144;25.884;2022-07-30T00:22:07;6.53;;;3.47;;
47523;SDS011;33253;42.144;25.884;2022-07-30T00:24:33;9.55;;;3.90;;
47523;SDS011;33253;42.144;25.884;2022-07-30T00:26:59;7.30;;;3.80;;
47523;SDS011;33253;42.144;25.884;2022-07-30T00:29:24;9.90;;;4.25;;
47523;SDS011;33253;42.144;25.884;2022-07-30T00:31:50;9.25;;;4.20;;
47523;SDS011;33253;42.144;25.884;2022-07-30T00:34:16;6.35;;;3.72;;
47523;SDS011;33253;42.144;25.884;2022-07-30T00:36:41;7.78;;;4.00;;
47523;SDS011;33253;42.144;25.884;2022-07-30T00:39:08;10.20;;;4.57;;
47523;SDS011;33253;42.144;25.884;2022-07-30T00:41:33;6.63;;;3.92;;
47523;SDS011;33253;42.144;25.884;2022-07-30T00:44:02;6.45;;;3.85;;
47523;SDS011;33253;42.144;25.884;2022-07-30T00:46:27;9.80;;;3.95;;
47523;SDS011;33253;42.144;25.884;2022-07-30T00:48:53;7.35;;;4.18;;
47523;SDS011;33253;42.144;25.884;2022-07-30T00:51:18;8.27;;;4.18;;
47523;SDS011;33253;42.144;25.884;2022-07-30T00:53:44;6.18;;;4.05;;
47523;SDS011;33253;42.144;25.884;2022-07-30T00:56:10;10.10;;;4.32;;
47523;SDS011;33253;42.144;25.884;2022-07-30T00:58:35;10.18;;;4.00;;
47523;SDS011;33253;42.144;25.884;2022-07-30T01:01:01;9.57;;;4.07;;
47523;SDS011;33253;42.144;25.884;2022-07-30T01:03:26;8.77;;;4.03;;
47523;SDS011;33253;42.144;25.884;2022-07-30T01:05:52;10.75;;;4.40;;
47523;SDS011;33253;42.144;25.884;2022-07-30T01:08:17;11.10;;;4.80;;
47523;SDS011;33253;42.144;25.884;2022-07-30T01:10:43;9.02;;;4.53;;
47523;SDS011;33253;42.144;25.884;2022-07-30T01:13:08;12.45;;;4.95;;
47523;SDS011;33253;42.144;25.884;2022-07-30T01:15:34;13.52;;;4.55;;
47523;SDS011;33253;42.144;25.884;2022-07-30T01:18:02;10.90;;;5.18;;
47523;SDS011;33253;42.144;25.884;2022-07-30T01:20:32;7.33;;;4.23;;
47523;SDS011;33253;42.144;25.884;2022-07-30T01:23:22;8.68;;;5.03;;
47523;SDS011;33253;42.144;25.884;2022-07-30T01:28:31;11.45;;;4.75;;
47523;SDS011;33253;42.144;25.884;2022-07-30T01:30:59;10.98;;;5.28;;
47523;SDS011;33253;42.144;25.884;2022-07-30T01:33:27;12.75;;;5.05;;
47523;SDS011;33253;42.144;25.884;2022-07-30T01:35:56;12.00;;;4.78;;
47523;SDS011;33253;42.144;25.884;2022-07-30T01:38:24;13.23;;;6.28;;
47523;SDS011;33253;42.144;25.884;2022-07-30T01:40:52;19.25;;;6.60;;
47523;SDS011;33253;42.144;25.884;2022-07-30T01:43:20;11.38;;;5.88;;
47523;SDS011;33253;42.144;25.884;2022-07-30T01:45:47;18.08;;;5.95;;
47523;SDS011;33253;42.144;25.884;2022-07-30T01:48:15;18.55;;;6.60;;
47523;SDS011;33253;42.144;25.884;2022-07-30T01:50:43;10.85;;;5.97;;
47523;SDS011;33253;42.144;25.884;2022-07-30T01:53:14;15.77;;;6.85;;
47523;SDS011;33253;42.144;25.884;2022-07-30T01:55:41;18.48;;;7.68;;
47523;SDS011;33253;42.144;25.884;2022-07-30T01:58:09;21.27;;;9.07;;
47523;SDS011;33253;42.144;25.884;2022-07-30T02:00:37;19.40;;;9.75;;
47523;SDS011;33253;42.144;25.884;2022-07-30T02:03:05;26.38;;;9.00;;
47523;SDS011;33253;42.144;25.884;2022-07-30T02:05:34;20.95;;;9.27;;
47523;SDS011;33253;42.144;25.884;2022-07-30T02:10:33;21.95;;;7.57;;
47523;SDS011;33253;42.144;25.884;2022-07-30T02:13:06;16.15;;;7.25;;
47523;SDS011;33253;42.144;25.884;2022-07-30T02:15:34;14.00;;;6.85;;
47523;SDS011;33253;42.144;25.884;2022-07-30T02:20:36;17.05;;;7.72;;
47523;SDS011;33253;42.144;25.884;2022-07-30T02:23:05;16.08;;;7.93;;
47523;SDS011;33253;42.144;25.884;2022-07-30T02:28:02;21.42;;;8.98;;
47523;SDS011;33253;42.144;25.884;2022-07-30T02:30:33;21.27;;;9.23;;
47523;SDS011;33253;42.144;25.884;2022-07-30T02:33:02;18.50;;;8.68;;
47523;SDS011;33253;42.144;25.884;2022-07-30T02:35:30;17.75;;;7.28;;
47523;SDS011;33253;42.144;25.884;2022-07-30T02:37:56;16.08;;;7.10;;
47523;SDS011;33253;42.144;25.884;2022-07-30T02:40:23;14.82;;;7.85;;
47523;SDS011;33253;42.144;25.884;2022-07-30T02:42:50;14.43;;;6.90;;
47523;SDS011;33253;42.144;25.884;2022-07-30T02:45:17;13.95;;;6.10;;
47523;SDS011;33253;42.144;25.884;2022-07-30T02:47:44;12.43;;;6.40;;
47523;SDS011;33253;42.144;25.884;2022-07-30T02:50:13;13.07;;;6.00;;
47523;SDS011;33253;42.144;25.884;2022-07-30T02:52:41;14.02;;;6.40;;
47523;SDS011;33253;42.144;25.884;2022-07-30T02:55:09;15.40;;;6.53;;
47523;SDS011;33253;42.144;25.884;2022-07-30T02:57:37;15.60;;;7.03;;
47523;SDS011;33253;42.144;25.884;2022-07-30T03:00:06;19.42;;;8.00;;
47523;SDS011;33253;42.144;25.884;2022-07-30T03:02:32;20.27;;;8.45;;
47523;SDS011;33253;42.144;25.884;2022-07-30T03:04:59;16.05;;;8.43;;
47523;SDS011;33253;42.144;25.884;2022-07-30T03:07:27;16.45;;;9.25;;
47523;SDS011;33253;42.144;25.884;2022-07-30T03:09:54;19.92;;;9.60;;
47523;SDS011;33253;42.144;25.884;2022-07-30T03:12:20;20.10;;;10.10;;
47523;SDS011;33253;42.144;25.884;2022-07-30T03:14:47;14.88;;;9.90;;
47523;SDS011;33253;42.144;25.884;2022-07-30T03:17:14;17.67;;;9.55;;
47523;SDS011;33253;42.144;25.884;2022-07-30T03:19:41;19.98;;;10.75;;
47523;SDS011;33253;42.144;25.884;2022-07-30T03:22:09;23.25;;;11.35;;
47523;SDS011;33253;42.144;25.884;2022-07-30T03:24:37;28.33;;;12.23;;
47523;SDS011;33253;42.144;25.884;2022-07-30T03:27:03;26.33;;;12.50;;
47523;SDS011;33253;42.144;25.884;2022-07-30T03:29:31;33.80;;;14.50;;
47523;SDS011;33253;42.144;25.884;2022-07-30T03:31:58;34.13;;;15.32;;
47523;SDS011;33253;42.144;25.884;2022-07-30T03:34:25;26.13;;;14.02;;
47523;SDS011;33253;42.144;25.884;2022-07-30T03:36:51;27.13;;;13.05;;
47523;SDS011;33253;42.144;25.884;2022-07-30T03:39:18;30.90;;;14.52;;
47523;SDS011;33253;42.144;25.884;2022-07-30T03:41:46;36.85;;;16.05;;
47523;SDS011;33253;42.144;25.884;2022-07-30T03:44:13;31.60;;;14.75;;
47523;SDS011;33253;42.144;25.884;2022-07-30T03:46:39;24.08;;;12.90;;
47523;SDS011;33253;42.144;25.884;2022-07-30T03:49:07;32.90;;;14.95;;
47523;SDS011;33253;42.144;25.884;2022-07-30T03:51:35;30.98;;;14.48;;
47523;SDS011;33253;42.144;25.884;2022-07-30T03:54:02;28.33;;;14.73;;
47523;SDS011;33253;42.144;25.884;2022-07-30T03:56:29;25.42;;;14.48;;
47523;SDS011;33253;42.144;25.884;2022-07-30T03:58:55;23.25;;;11.68;;
47523;SDS011;33253;42.144;25.884;2022-07-30T04:01:24;25.75;;;12.25;;
47523;SDS011;33253;42.144;25.884;2022-07-30T04:03:50;18.80;;;10.35;;
47523;SDS011;33253;42.144;25.884;2022-07-30T04:06:16;23.25;;;10.52;;
47523;SDS011;33253;42.144;25.884;2022-07-30T04:08:41;18.73;;;10.80;;
47523;SDS011;33253;42.144;25.884;2022-07-30T04:11:08;20.45;;;10.48;;
47523;SDS011;33253;42.144;25.884;2022-07-30T04:13:34;24.50;;;11.45;;
47523;SDS011;33253;42.144;25.884;2022-07-30T04:18:57;22.08;;;11.70;;
47523;SDS011;33253;42.144;25.884;2022-07-30T04:21:24;20.77;;;10.82;;
47523;SDS011;33253;42.144;25.884;2022-07-30T04:23:51;22.73;;;11.13;;
47523;SDS011;33253;42.144;25.884;2022-07-30T04:26:19;19.92;;;9.82;;
47523;SDS011;33253;42.144;25.884;2022-07-30T04:28:45;13.77;;;8.85;;
47523;SDS011;33253;42.144;25.884;2022-07-30T04:31:11;18.83;;;9.43;;
47523;SDS011;33253;42.144;25.884;2022-07-30T04:33:37;23.80;;;8.68;;
47523;SDS011;33253;42.144;25.884;2022-07-30T04:36:08;19.58;;;8.73;;
47523;SDS011;33253;42.144;25.884;2022-07-30T04:38:34;18.92;;;8.70;;
47523;SDS011;33253;42.144;25.884;2022-07-30T04:41:00;13.63;;;7.25;;
47523;SDS011;33253;42.144;25.884;2022-07-30T04:43:25;11.85;;;7.93;;
47523;SDS011;33253;42.144;25.884;2022-07-30T04:45:51;11.55;;;7.57;;
47523;SDS011;33253;42.144;25.884;2022-07-30T04:48:16;11.40;;;7.43;;
47523;SDS011;33253;42.144;25.884;2022-07-30T04:50:43;13.07;;;6.70;;
47523;SDS011;33253;42.144;25.884;2022-07-30T04:53:11;10.93;;;7.07;;
47523;SDS011;33253;42.144;25.884;2022-07-30T04:55:37;11.95;;;7.95;;
47523;SDS011;33253;42.144;25.884;2022-07-30T04:58:06;11.90;;;7.22;;
47523;SDS011;33253;42.144;25.884;2022-07-30T05:00:34;12.27;;;7.72;;
47523;SDS011;33253;42.144;25.884;2022-07-30T05:03:01;16.85;;;7.78;;
47523;SDS011;33253;42.144;25.884;2022-07-30T05:05:28;16.70;;;8.52;;
47523;SDS011;33253;42.144;25.884;2022-07-30T05:07:56;15.32;;;7.70;;
47523;SDS011;33253;42.144;25.884;2022-07-30T05:10:22;16.38;;;8.93;;
47523;SDS011;33253;42.144;25.884;2022-07-30T05:12:48;28.33;;;9.77;;
47523;SDS011;33253;42.144;25.884;2022-07-30T05:15:13;17.95;;;10.38;;
47523;SDS011;33253;42.144;25.884;2022-07-30T05:17:39;19.35;;;9.80;;
47523;SDS011;33253;42.144;25.884;2022-07-30T05:20:05;30.45;;;10.20;;
47523;SDS011;33253;42.144;25.884;2022-07-30T05:22:31;28.00;;;11.43;;
47523;SDS011;33253;42.144;25.884;2022-07-30T05:24:56;21.23;;;11.35;;
47523;SDS011;33253;42.144;25.884;2022-07-30T05:27:22;34.20;;;12.30;;
47523;SDS011;33253;42.144;25.884;2022-07-30T05:29:47;21.33;;;10.70;;
47523;SDS011;33253;42.144;25.884;2022-07-30T05:32:13;27.60;;;11.40;;
47523;SDS011;33253;42.144;25.884;2022-07-30T05:34:38;29.38;;;14.23;;
47523;SDS011;33253;42.144;25.884;2022-07-30T05:37:04;17.98;;;10.35;;
47523;SDS011;33253;42.144;25.884;2022-07-30T05:39:30;18.98;;;10.07;;
47523;SDS011;33253;42.144;25.884;2022-07-30T05:41:56;20.65;;;11.23;;
47523;SDS011;33253;42.144;25.884;2022-07-30T05:44:21;27.45;;;12.68;;
47523;SDS011;33253;42.144;25.884;2022-07-30T05:46:47;18.52;;;8.88;;
47523;SDS011;33253;42.144;25.884;2022-07-30T05:49:14;19.55;;;10.32;;
47523;SDS011;33253;42.144;25.884;2022-07-30T05:51:40;21.50;;;9.48;;
47523;SDS011;33253;42.144;25.884;2022-07-30T05:54:07;22.40;;;10.43;;
47523;SDS011;33253;42.144;25.884;2022-07-30T05:56:33;19.48;;;9.85;;
47523;SDS011;33253;42.144;25.884;2022-07-30T05:59:00;17.83;;;9.88;;
47523;SDS011;33253;42.144;25.884;2022-07-30T06:01:26;16.48;;;9.18;;
47523;SDS011;33253;42.144;25.884;2022-07-30T06:03:51;15.80;;;8.98;;
47523;SDS011;33253;42.144;25.884;2022-07-30T06:06:17;21.23;;;10.00;;
47523;SDS011;33253;42.144;25.884;2022-07-30T06:08:42;19.75;;;9.00;;
47523;SDS011;33253;42.144;25.884;2022-07-30T06:11:08;16.33;;;9.30;;
47523;SDS011;33253;42.144;25.884;2022-07-30T06:13:34;21.48;;;10.05;;
47523;SDS011;33253;42.144;25.884;2022-07-30T06:16:00;21.50;;;10.00;;
47523;SDS011;33253;42.144;25.884;2022-07-30T06:18:26;26.30;;;9.75;;
47523;SDS011;33253;42.144;25.884;2022-07-30T06:20:52;25.67;;;10.43;;
47523;SDS011;33253;42.144;25.884;2022-07-30T06:23:21;20.00;;;9.15;;
47523;SDS011;33253;42.144;25.884;2022-07-30T06:25:47;24.70;;;9.57;;
47523;SDS011;33253;42.144;25.884;2022-07-30T06:28:13;15.77;;;8.38;;
47523;SDS011;33253;42.144;25.884;2022-07-30T06:30:40;12.43;;;7.95;;
47523;SDS011;33253;42.144;25.884;2022-07-30T06:33:05;15.27;;;8.40;;
47523;SDS011;33253;42.144;25.884;2022-07-30T06:35:31;13.10;;;8.10;;
47523;SDS011;33253;42.144;25.884;2022-07-30T06:37:58;14.82;;;7.07;;
47523;SDS011;33253;42.144;25.884;2022-07-30T06:40:24;12.07;;;7.28;;
47523;SDS011;33253;42.144;25.884;2022-07-30T06:42:49;12.43;;;6.80;;
47523;SDS011;33253;42.144;25.884;2022-07-30T06:45:15;10.18;;;6.30;;
47523;SDS011;33253;42.144;25.884;2022-07-30T06:47:41;14.35;;;6.55;;
47523;SDS011;33253;42.144;25.884;2022-07-30T06:50:06;18.50;;;7.30;;
47523;SDS011;33253;42.144;25.884;2022-07-30T06:52:32;10.93;;;6.30;;
47523;SDS011;33253;42.144;25.884;2022-07-30T06:54:58;13.35;;;6.00;;
47523;SDS011;33253;42.144;25.884;2022-07-30T06:57:23;9.40;;;6.00;;
47523;SDS011;33253;42.144;25.884;2022-07-30T06:59:50;15.82;;;6.30;;
47523;SDS011;33253;42.144;25.884;2022-07-30T07:02:15;7.57;;;5.88;;
47523;SDS011;33253;42.144;25.884;2022-07-30T07:04:41;7.75;;;5.25;;
47523;SDS011;33253;42.144;25.884;2022-07-30T07:07:06;16.83;;;6.20;;
47523;SDS011;33253;42.144;25.884;2022-07-30T07:09:32;20.27;;;8.63;;
47523;SDS011;33253;42.144;25.884;2022-07-30T07:11:57;12.23;;;5.63;;
47523;SDS011;33253;42.144;25.884;2022-07-30T07:14:23;9.38;;;5.95;;
47523;SDS011;33253;42.144;25.884;2022-07-30T07:16:48;11.68;;;5.28;;
47523;SDS011;33253;42.144;25.884;2022-07-30T07:19:14;9.05;;;4.85;;
47523;SDS011;33253;42.144;25.884;2022-07-30T07:21:40;8.27;;;4.20;;
47523;SDS011;33253;42.144;25.884;2022-07-30T07:24:08;7.80;;;4.95;;
47523;SDS011;33253;42.144;25.884;2022-07-30T07:26:34;8.10;;;5.28;;
47523;SDS011;33253;42.144;25.884;2022-07-30T07:29:00;8.70;;;4.95;;
47523;SDS011;33253;42.144;25.884;2022-07-30T07:31:26;7.15;;;4.80;;
47523;SDS011;33253;42.144;25.884;2022-07-30T07:33:52;12.07;;;5.30;;
47523;SDS011;33253;42.144;25.884;2022-07-30T07:36:21;11.35;;;5.10;;
47523;SDS011;33253;42.144;25.884;2022-07-30T07:38:47;6.85;;;4.80;;
47523;SDS011;33253;42.144;25.884;2022-07-30T07:41:29;6.40;;;4.22;;
47523;SDS011;33253;42.144;25.884;2022-07-30T07:43:55;6.22;;;4.20;;
47523;SDS011;33253;42.144;25.884;2022-07-30T07:46:23;8.02;;;4.22;;
47523;SDS011;33253;42.144;25.884;2022-07-30T07:48:48;5.90;;;3.60;;
47523;SDS011;33253;42.144;25.884;2022-07-30T07:51:14;7.05;;;3.78;;
47523;SDS011;33253;42.144;25.884;2022-07-30T07:53:39;12.05;;;3.80;;
47523;SDS011;33253;42.144;25.884;2022-07-30T07:56:04;7.15;;;3.60;;
47523;SDS011;33253;42.144;25.884;2022-07-30T07:58:32;5.95;;;3.67;;
47523;SDS011;33253;42.144;25.884;2022-07-30T08:00:58;6.65;;;3.30;;
47523;SDS011;33253;42.144;25.884;2022-07-30T08:03:23;7.82;;;3.83;;
47523;SDS011;33253;42.144;25.884;2022-07-30T08:05:49;10.23;;;3.75;;
47523;SDS011;33253;42.144;25.884;2022-07-30T08:08:14;9.30;;;4.00;;
47523;SDS011;33253;42.144;25.884;2022-07-30T08:10:40;12.15;;;4.80;;
47523;SDS011;33253;42.144;25.884;2022-07-30T08:13:05;13.57;;;4.50;;
47523;SDS011;33253;42.144;25.884;2022-07-30T08:15:31;8.88;;;4.07;;
47523;SDS011;33253;42.144;25.884;2022-07-30T08:17:57;5.53;;;3.40;;
47523;SDS011;33253;42.144;25.884;2022-07-30T08:20:22;7.32;;;3.90;;
47523;SDS011;33253;42.144;25.884;2022-07-30T08:22:49;12.75;;;4.10;;
47523;SDS011;33253;42.144;25.884;2022-07-30T08:25:14;10.40;;;4.13;;
47523;SDS011;33253;42.144;25.884;2022-07-30T08:27:40;9.00;;;3.63;;
47523;SDS011;33253;42.144;25.884;2022-07-30T08:30:08;6.95;;;3.40;;
47523;SDS011;33253;42.144;25.884;2022-07-30T08:32:34;5.55;;;3.30;;
47523;SDS011;33253;42.144;25.884;2022-07-30T08:35:01;12.63;;;4.28;;
47523;SDS011;33253;42.144;25.884;2022-07-30T08:37:27;12.63;;;4.07;;
47523;SDS011;33253;42.144;25.884;2022-07-30T08:39:53;8.07;;;4.38;;
47523;SDS011;33253;42.144;25.884;2022-07-30T08:42:18;6.45;;;3.75;;
47523;SDS011;33253;42.144;25.884;2022-07-30T08:44:44;8.38;;;3.88;;
47523;SDS011;33253;42.144;25.884;2022-07-30T08:47:10;10.18;;;3.78;;
47523;SDS011;33253;42.144;25.884;2022-07-30T08:49:41;7.10;;;3.47;;
47523;SDS011;33253;42.144;25.884;2022-07-30T08:52:08;7.57;;;3.90;;
47523;SDS011;33253;42.144;25.884;2022-07-30T08:54:34;7.65;;;4.30;;
47523;SDS011;33253;42.144;25.884;2022-07-30T08:57:00;9.20;;;4.38;;
47523;SDS011;33253;42.144;25.884;2022-07-30T08:59:26;7.20;;;4.13;;
47523;SDS011;33253;42.144;25.884;2022-07-30T09:01:52;14.23;;;4.70;;
47523;SDS011;33253;42.144;25.884;2022-07-30T09:04:18;8.18;;;4.65;;
47523;SDS011;33253;42.144;25.884;2022-07-30T09:06:43;17.17;;;4.63;;
47523;SDS011;33253;42.144;25.884;2022-07-30T09:09:09;13.43;;;4.80;;
47523;SDS011;33253;42.144;25.884;2022-07-30T09:11:34;9.20;;;4.88;;
47523;SDS011;33253;42.144;25.884;2022-07-30T09:14:10;13.05;;;4.82;;
47523;SDS011;33253;42.144;25.884;2022-07-30T09:16:37;7.75;;;4.40;;
47523;SDS011;33253;42.144;25.884;2022-07-30T09:19:16;10.07;;;4.38;;
47523;SDS011;33253;42.144;25.884;2022-07-30T09:22:04;13.10;;;4.70;;
47523;SDS011;33253;42.144;25.884;2022-07-30T09:24:29;10.57;;;4.60;;
47523;SDS011;33253;42.144;25.884;2022-07-30T09:27:05;9.43;;;4.80;;
47523;SDS011;33253;42.144;25.884;2022-07-30T09:29:31;9.68;;;4.32;;
47523;SDS011;33253;42.144;25.884;2022-07-30T09:32:01;7.95;;;4.20;;
47523;SDS011;33253;42.144;25.884;2022-07-30T09:34:32;7.28;;;4.43;;
47523;SDS011;33253;42.144;25.884;2022-07-30T09:37:00;10.35;;;5.22;;
47523;SDS011;33253;42.144;25.884;2022-07-30T09:39:29;11.23;;;5.05;;
47523;SDS011;33253;42.144;25.884;2022-07-30T09:42:02;11.07;;;4.50;;
47523;SDS011;33253;42.144;25.884;2022-07-30T09:44:40;6.55;;;4.78;;
47523;SDS011;33253;42.144;25.884;2022-07-30T09:47:05;9.88;;;4.30;;
47523;SDS011;33253;42.144;25.884;2022-07-30T09:49:31;7.45;;;4.55;;
47523;SDS011;33253;42.144;25.884;2022-07-30T09:51:56;11.50;;;4.50;;
47523;SDS011;33253;42.144;25.884;2022-07-30T09:54:23;14.10;;;5.75;;
47523;SDS011;33253;42.144;25.884;2022-07-30T09:57:08;7.07;;;4.53;;
47523;SDS011;33253;42.144;25.884;2022-07-30T09:59:34;7.60;;;4.50;;
47523;SDS011;33253;42.144;25.884;2022-07-30T10:01:59;7.80;;;4.20;;
47523;SDS011;33253;42.144;25.884;2022-07-30T10:04:28;11.57;;;4.93;;
47523;SDS011;33253;42.144;25.884;2022-07-30T10:06:59;14.10;;;4.90;;
47523;SDS011;33253;42.144;25.884;2022-07-30T10:09:29;11.38;;;5.25;;
47523;SDS011;33253;42.144;25.884;2022-07-30T10:11:57;10.25;;;5.05;;
47523;SDS011;33253;42.144;25.884;2022-07-30T10:14:28;9.65;;;4.57;;
47523;SDS011;33253;42.144;25.884;2022-07-30T10:16:58;7.82;;;4.80;;
47523;SDS011;33253;42.144;25.884;2022-07-30T10:19:24;8.35;;;4.60;;
47523;SDS011;33253;42.144;25.884;2022-07-30T10:21:50;11.13;;;5.75;;
47523;SDS011;33253;42.144;25.884;2022-07-30T10:24:18;11.20;;;4.60;;
47523;SDS011;33253;42.144;25.884;2022-07-30T10:26:48;7.30;;;4.65;;
47523;SDS011;33253;42.144;25.884;2022-07-30T10:29:15;7.80;;;5.03;;
47523;SDS011;33253;42.144;25.884;2022-07-30T10:31:43;7.68;;;4.68;;
47523;SDS011;33253;42.144;25.884;2022-07-30T10:34:09;10.57;;;4.93;;
47523;SDS011;33253;42.144;25.884;2022-07-30T10:36:36;6.90;;;4.63;;
47523;SDS011;33253;42.144;25.884;2022-07-30T10:39:09;7.35;;;4.82;;
47523;SDS011;33253;42.144;25.884;2022-07-30T10:41:46;6.18;;;4.50;;
47523;SDS011;33253;42.144;25.884;2022-07-30T10:47:26;5.07;;;4.45;;
47523;SDS011;33253;42.144;25.884;2022-07-30T10:52:41;9.07;;;4.65;;
47523;SDS011;33253;42.144;25.884;2022-07-30T10:55:11;6.43;;;4.55;;
47523;SDS011;33253;42.144;25.884;2022-07-30T11:00:22;6.45;;;4.68;;
47523;SDS011;33253;42.144;25.884;2022-07-30T11:05:44;6.82;;;4.80;;
47523;SDS011;33253;42.144;25.884;2022-07-30T11:08:31;7.75;;;4.72;;
47523;SDS011;33253;42.144;25.884;2022-07-30T11:10:58;7.97;;;4.60;;
47523;SDS011;33253;42.144;25.884;2022-07-30T11:16:16;5.80;;;4.05;;
47523;SDS011;33253;42.144;25.884;2022-07-30T11:22:20;7.00;;;4.35;;
47523;SDS011;33253;42.144;25.884;2022-07-30T11:24:53;5.00;;;4.50;;
47523;SDS011;33253;42.144;25.884;2022-07-30T11:30:04;8.80;;;4.97;;
47523;SDS011;33253;42.144;25.884;2022-07-30T11:32:51;5.95;;;4.68;;
47523;SDS011;33253;42.144;25.884;2022-07-30T11:35:18;5.72;;;4.32;;
47523;SDS011;33253;42.144;25.884;2022-07-30T11:38:02;6.05;;;4.72;;
47523;SDS011;33253;42.144;25.884;2022-07-30T11:40:38;5.63;;;4.05;;
47523;SDS011;33253;42.144;25.884;2022-07-30T11:43:25;6.38;;;4.35;;
47523;SDS011;33253;42.144;25.884;2022-07-30T11:51:05;8.73;;;4.70;;
47523;SDS011;33253;42.144;25.884;2022-07-30T11:53:31;7.90;;;4.95;;
47523;SDS011;33253;42.144;25.884;2022-07-30T11:55:57;7.38;;;4.25;;
47523;SDS011;33253;42.144;25.884;2022-07-30T12:00:55;7.10;;;4.32;;
47523;SDS011;33253;42.144;25.884;2022-07-30T12:03:22;8.18;;;4.30;;
47523;SDS011;33253;42.144;25.884;2022-07-30T12:05:53;5.47;;;3.92;;
47523;SDS011;33253;42.144;25.884;2022-07-30T12:08:19;5.05;;;4.25;;
47523;SDS011;33253;42.144;25.884;2022-07-30T12:10:56;4.95;;;3.97;;
47523;SDS011;33253;42.144;25.884;2022-07-30T12:13:23;5.78;;;4.30;;
47523;SDS011;33253;42.144;25.884;2022-07-30T12:15:50;6.32;;;4.47;;
47523;SDS011;33253;42.144;25.884;2022-07-30T12:18:25;10.50;;;5.22;;
47523;SDS011;33253;42.144;25.884;2022-07-30T12:20:55;9.13;;;4.68;;
47523;SDS011;33253;42.144;25.884;2022-07-30T12:23:24;8.82;;;4.43;;
47523;SDS011;33253;42.144;25.884;2022-07-30T12:25:50;8.65;;;4.55;;
47523;SDS011;33253;42.144;25.884;2022-07-30T12:28:34;8.93;;;4.43;;
47523;SDS011;33253;42.144;25.884;2022-07-30T12:31:00;8.43;;;4.65;;
47523;SDS011;33253;42.144;25.884;2022-07-30T12:33:28;5.60;;;4.28;;
47523;SDS011;33253;42.144;25.884;2022-07-30T12:35:57;5.03;;;4.43;;
47523;SDS011;33253;42.144;25.884;2022-07-30T12:38:25;5.32;;;4.63;;
47523;SDS011;33253;42.144;25.884;2022-07-30T12:40:56;6.37;;;3.93;;
47523;SDS011;33253;42.144;25.884;2022-07-30T12:46:14;5.00;;;4.35;;
47523;SDS011;33253;42.144;25.884;2022-07-30T12:48:48;5.20;;;4.22;;
47523;SDS011;33253;42.144;25.884;2022-07-30T12:51:14;5.00;;;3.95;;
47523;SDS011;33253;42.144;25.884;2022-07-30T12:53:39;5.63;;;3.92;;
47523;SDS011;33253;42.144;25.884;2022-07-30T12:56:10;5.97;;;3.85;;
47523;SDS011;33253;42.144;25.884;2022-07-30T12:58:36;5.70;;;4.05;;
47523;SDS011;33253;42.144;25.884;2022-07-30T13:01:02;5.38;;;4.65;;
47523;SDS011;33253;42.144;25.884;2022-07-30T13:03:28;6.30;;;4.25;;
47523;SDS011;33253;42.144;25.884;2022-07-30T13:06:09;21.13;;;18.95;;
47523;SDS011;33253;42.144;25.884;2022-07-30T13:11:19;6.90;;;4.13;;
47523;SDS011;33253;42.144;25.884;2022-07-30T13:13:46;4.63;;;4.03;;
47523;SDS011;33253;42.144;25.884;2022-07-30T13:16:13;4.47;;;3.97;;
47523;SDS011;33253;42.144;25.884;2022-07-30T13:18:39;5.03;;;3.65;;
47523;SDS011;33253;42.144;25.884;2022-07-30T13:21:06;4.13;;;3.30;;
47523;SDS011;33253;42.144;25.884;2022-07-30T13:23:33;5.95;;;4.00;;
47523;SDS011;33253;42.144;25.884;2022-07-30T13:26:00;5.50;;;3.80;;
47523;SDS011;33253;42.144;25.884;2022-07-30T13:28:26;5.18;;;4.13;;
47523;SDS011;33253;42.144;25.884;2022-07-30T13:30:52;6.65;;;3.90;;
47523;SDS011;33253;42.144;25.884;2022-07-30T13:33:18;5.82;;;4.18;;
47523;SDS011;33253;42.144;25.884;2022-07-30T13:35:43;5.25;;;4.20;;
47523;SDS011;33253;42.144;25.884;2022-07-30T13:38:09;6.07;;;4.03;;
47523;SDS011;33253;42.144;25.884;2022-07-30T13:40:37;5.03;;;3.70;;
47523;SDS011;33253;42.144;25.884;2022-07-30T13:43:03;8.10;;;3.85;;
47523;SDS011;33253;42.144;25.884;2022-07-30T13:45:29;7.43;;;3.92;;
47523;SDS011;33253;42.144;25.884;2022-07-30T13:47:54;5.63;;;3.72;;
47523;SDS011;33253;42.144;25.884;2022-07-30T13:50:20;4.70;;;3.63;;
47523;SDS011;33253;42.144;25.884;2022-07-30T13:52:47;6.50;;;3.67;;
47523;SDS011;33253;42.144;25.884;2022-07-30T13:55:13;5.78;;;3.83;;
47523;SDS011;33253;42.144;25.884;2022-07-30T13:57:38;6.63;;;3.20;;
47523;SDS011;33253;42.144;25.884;2022-07-30T14:00:05;6.72;;;4.38;;
47523;SDS011;33253;42.144;25.884;2022-07-30T14:02:32;8.25;;;3.72;;
47523;SDS011;33253;42.144;25.884;2022-07-30T14:04:59;5.28;;;3.47;;
47523;SDS011;33253;42.144;25.884;2022-07-30T14:07:30;4.82;;;3.78;;
47523;SDS011;33253;42.144;25.884;2022-07-30T14:09:56;7.13;;;4.72;;
47523;SDS011;33253;42.144;25.884;2022-07-30T14:12:22;14.55;;;8.95;;
47523;SDS011;33253;42.144;25.884;2022-07-30T14:14:47;5.40;;;3.70;;
47523;SDS011;33253;42.144;25.884;2022-07-30T14:17:13;7.57;;;3.95;;
47523;SDS011;33253;42.144;25.884;2022-07-30T14:19:38;4.35;;;3.53;;
47523;SDS011;33253;42.144;25.884;2022-07-30T14:22:04;7.55;;;4.18;;
47523;SDS011;33253;42.144;25.884;2022-07-30T14:24:29;6.97;;;3.58;;
47523;SDS011;33253;42.144;25.884;2022-07-30T14:26:55;7.10;;;3.25;;
47523;SDS011;33253;42.144;25.884;2022-07-30T14:29:20;6.13;;;3.60;;
47523;SDS011;33253;42.144;25.884;2022-07-30T14:31:46;6.35;;;3.60;;
47523;SDS011;33253;42.144;25.884;2022-07-30T14:34:12;4.60;;;3.55;;
47523;SDS011;33253;42.144;25.884;2022-07-30T14:36:37;5.28;;;3.50;;
47523;SDS011;33253;42.144;25.884;2022-07-30T14:39:03;3.67;;;3.15;;
47523;SDS011;33253;42.144;25.884;2022-07-30T14:41:29;5.40;;;3.50;;
47523;SDS011;33253;42.144;25.884;2022-07-30T14:43:55;4.72;;;3.65;;
47523;SDS011;33253;42.144;25.884;2022-07-30T14:46:21;4.22;;;3.13;;
47523;SDS011;33253;42.144;25.884;2022-07-30T14:48:47;4.95;;;3.47;;
47523;SDS011;33253;42.144;25.884;2022-07-30T14:51:14;5.07;;;3.00;;
47523;SDS011;33253;42.144;25.884;2022-07-30T14:53:39;5.15;;;3.53;;
47523;SDS011;33253;42.144;25.884;2022-07-30T14:56:05;5.20;;;3.67;;
47523;SDS011;33253;42.144;25.884;2022-07-30T14:58:50;4.93;;;2.97;;
47523;SDS011;33253;42.144;25.884;2022-07-30T15:01:17;5.57;;;3.22;;
47523;SDS011;33253;42.144;25.884;2022-07-30T15:03:45;5.50;;;3.45;;
47523;SDS011;33253;42.144;25.884;2022-07-30T15:06:12;4.20;;;3.33;;
47523;SDS011;33253;42.144;25.884;2022-07-30T15:08:39;5.28;;;3.53;;
47523;SDS011;33253;42.144;25.884;2022-07-30T15:11:05;7.53;;;3.40;;
47523;SDS011;33253;42.144;25.884;2022-07-30T15:13:30;8.02;;;3.78;;